createdAt,value
2023-02-05T00:02:25.428Z,26.42
2023-02-05T00:04:53.700Z,26.39
2023-02-05T00:07:22.051Z,26.35
2023-02-05T00:09:50.051Z,26.35
2023-02-05T00:12:17.895Z,26.30
2023-02-05T00:14:46.284Z,26.27
2023-02-05T00:17:14.219Z,26.35
2023-02-05T00:19:42.337Z,26.38
2023-02-05T00:22:10.181Z,26.35
2023-02-05T00:24:38.374Z,26.34
2023-02-05T00:27:07.207Z,26.30
2023-02-05T00:29:36.516Z,26.39
2023-02-05T00:32:04.673Z,26.37
2023-02-05T00:34:33.160Z,26.36
2023-02-05T00:37:01.379Z,26.32
2023-02-05T00:39:29.837Z,26.37
2023-02-05T00:41:58.397Z,26.33
2023-02-05T00:44:26.288Z,26.37
2023-02-05T00:46:54.153Z,26.34
2023-02-05T00:49:22.229Z,26.27
2023-02-05T00:51:52.544Z,26.33
2023-02-05T00:54:20.491Z,26.28
2023-02-05T00:56:48.364Z,26.34
2023-02-05T00:59:16.768Z,26.32
2023-02-05T01:01:44.898Z,26.34
2023-02-05T01:04:12.798Z,26.31
2023-02-05T01:06:41.835Z,26.40
2023-02-05T01:09:11.512Z,26.37
2023-02-05T01:11:39.683Z,26.33
2023-02-05T01:14:07.562Z,26.32
2023-02-05T01:16:36.169Z,26.32
2023-02-05T01:19:04.966Z,26.34
2023-02-05T01:21:32.878Z,26.39
2023-02-05T01:24:01.671Z,26.36
2023-02-05T01:26:29.996Z,26.42
2023-02-05T01:28:58.220Z,26.41
2023-02-05T01:31:28.400Z,26.33
2023-02-05T01:33:57.481Z,26.40
2023-02-05T01:36:26.132Z,26.45
2023-02-05T01:38:54.434Z,26.41
2023-02-05T01:41:23.881Z,26.38
2023-02-05T01:44:12.488Z,26.33
2023-02-05T01:46:42.222Z,26.41
2023-02-05T01:49:26.819Z,26.47
2023-02-05T01:51:55.694Z,26.35
2023-02-05T01:54:25.165Z,26.36
2023-02-05T01:56:56.013Z,26.40
2023-02-05T01:59:26.602Z,26.37
2023-02-05T02:01:54.629Z,26.39
2023-02-05T02:04:37.613Z,26.43
2023-02-05T02:07:05.889Z,26.35
2023-02-05T02:09:34.516Z,26.40
2023-02-05T02:12:06.340Z,26.40
2023-02-05T02:14:34.283Z,26.36
2023-02-05T02:17:02.414Z,26.31
2023-02-05T02:19:49.201Z,26.34
2023-02-05T02:22:28.744Z,26.35
2023-02-05T02:25:15.641Z,26.37
2023-02-05T02:28:02.940Z,26.40
2023-02-05T02:30:39.824Z,26.47
2023-02-05T02:33:10.603Z,26.47
2023-02-05T02:35:59.800Z,26.46
2023-02-05T02:38:45.374Z,26.40
2023-02-05T02:41:27.122Z,26.47
2023-02-05T02:43:59.489Z,26.39
2023-02-05T02:46:30.686Z,26.53
2023-02-05T02:49:00.650Z,26.43
2023-02-05T02:51:29.416Z,26.47
2023-02-05T02:54:00.773Z,26.49
2023-02-05T02:56:29.315Z,26.41
2023-02-05T02:59:00.143Z,26.37
2023-02-05T03:01:32.792Z,26.35
2023-02-05T03:04:10.050Z,26.42
2023-02-05T03:06:39.711Z,26.33
2023-02-05T03:09:27.399Z,26.27
2023-02-05T03:11:57.007Z,26.30
2023-02-05T03:14:25.192Z,26.40
2023-02-05T03:16:53.881Z,26.35
2023-02-05T03:19:21.940Z,26.43
2023-02-05T03:22:16.120Z,26.38
2023-02-05T03:24:43.997Z,26.43
2023-02-05T03:27:11.958Z,26.42
2023-02-05T03:29:44.656Z,26.34
2023-02-05T03:32:23.310Z,26.43
2023-02-05T03:35:26.246Z,26.37
2023-02-05T03:38:00.680Z,26.48
2023-02-05T03:40:50.465Z,26.43
2023-02-05T03:43:32.891Z,26.38
2023-02-05T03:46:36.635Z,26.36
2023-02-05T03:49:08.240Z,26.25
2023-02-05T03:51:42.587Z,26.41
2023-02-05T03:54:21.535Z,26.38
2023-02-05T03:56:58.117Z,26.42
2023-02-05T03:59:26.375Z,26.33
2023-02-05T04:01:54.812Z,26.40
2023-02-05T04:04:23.266Z,26.31
2023-02-05T04:06:52.468Z,26.38
2023-02-05T04:09:20.851Z,26.35
2023-02-05T04:11:48.818Z,26.36
2023-02-05T04:14:18.218Z,26.32
2023-02-05T04:16:46.905Z,26.33
2023-02-05T04:19:14.893Z,26.39
2023-02-05T04:21:42.932Z,26.35
2023-02-05T04:24:10.790Z,26.31
2023-02-05T04:26:39.078Z,26.37
2023-02-05T04:29:07.672Z,26.34
2023-02-05T04:31:41.206Z,26.44
2023-02-05T04:34:09.968Z,26.34
2023-02-05T04:36:39.652Z,26.42
2023-02-05T04:39:07.905Z,26.49
2023-02-05T04:41:36.785Z,26.47
2023-02-05T04:44:06.010Z,26.43
2023-02-05T04:46:35.766Z,26.49
2023-02-05T04:49:03.815Z,26.49
2023-02-05T04:51:32.807Z,26.44
2023-02-05T04:54:00.894Z,26.44
2023-02-05T04:56:28.985Z,26.51
2023-02-05T04:58:56.920Z,26.43
2023-02-05T05:01:24.787Z,26.44
2023-02-05T05:03:52.861Z,26.47
2023-02-05T05:06:20.755Z,26.44
2023-02-05T05:08:48.802Z,26.46
2023-02-05T05:11:19.108Z,26.56
2023-02-05T05:13:48.737Z,26.52
2023-02-05T05:16:16.822Z,26.50
2023-02-05T05:18:45.967Z,26.41
2023-02-05T05:21:13.940Z,26.45
2023-02-05T05:23:41.899Z,26.45
2023-02-05T05:26:11.746Z,26.44
2023-02-05T05:28:39.878Z,26.53
2023-02-05T05:34:21.777Z,26.71
2023-02-05T05:36:50.625Z,26.48
2023-02-05T05:39:37.371Z,26.49
2023-02-05T05:42:24.463Z,26.48
2023-02-05T05:44:53.142Z,26.44
2023-02-05T05:47:21.103Z,26.51
2023-02-05T05:49:49.240Z,26.45
2023-02-05T05:52:17.254Z,26.45
2023-02-05T05:54:45.228Z,26.51
2023-02-05T05:57:13.146Z,26.48
2023-02-05T05:59:41.146Z,26.42
2023-02-05T06:02:09.010Z,26.48
2023-02-05T06:04:37.931Z,26.44
2023-02-05T06:07:05.893Z,26.44
2023-02-05T06:09:34.180Z,26.43
2023-02-05T06:12:06.282Z,26.50
2023-02-05T06:14:34.784Z,26.53
2023-02-05T06:17:02.730Z,26.53
2023-02-05T06:19:31.657Z,26.49
2023-02-05T06:21:59.712Z,26.48
2023-02-05T06:24:30.770Z,26.59
2023-02-05T06:26:59.108Z,26.52
2023-02-05T06:29:27.117Z,26.51
2023-02-05T06:31:55.308Z,26.54
2023-02-05T06:34:23.528Z,26.52
2023-02-05T06:36:51.501Z,26.52
2023-02-05T06:39:19.371Z,26.46
2023-02-05T06:41:47.341Z,26.44
2023-02-05T06:44:16.119Z,26.48
2023-02-05T06:46:44.776Z,26.52
2023-02-05T06:49:14.799Z,26.47
2023-02-05T06:51:42.916Z,26.55
2023-02-05T06:54:11.411Z,26.48
2023-02-05T06:56:39.344Z,26.53
2023-02-05T06:59:07.224Z,26.48
2023-02-05T07:01:35.272Z,26.45
2023-02-05T07:04:03.848Z,26.53
2023-02-05T07:06:32.108Z,26.57
2023-02-05T07:09:01.347Z,26.44
2023-02-05T07:11:29.544Z,26.58
2023-02-05T07:13:57.524Z,26.50
2023-02-05T07:16:25.600Z,26.52
2023-02-05T07:18:53.546Z,26.51
2023-02-05T07:21:22.361Z,26.54
2023-02-05T07:23:50.642Z,26.52
2023-02-05T07:26:18.668Z,26.46
2023-02-05T07:28:46.570Z,26.52
2023-02-05T07:31:16.033Z,26.48
2023-02-05T07:33:47.337Z,26.50
2023-02-05T07:36:17.575Z,26.55
2023-02-05T07:39:04.114Z,26.54
2023-02-05T07:41:32.179Z,26.60
2023-02-05T07:44:00.341Z,26.55
2023-02-05T07:46:28.629Z,26.52
2023-02-05T07:48:56.846Z,26.50
2023-02-05T07:51:26.362Z,26.51
2023-02-05T07:53:54.709Z,26.50
2023-02-05T07:56:25.705Z,26.50
2023-02-05T07:58:53.851Z,26.47
2023-02-05T08:01:21.813Z,26.47
2023-02-05T08:03:49.982Z,26.51
2023-02-05T08:06:17.988Z,26.48
2023-02-05T08:08:45.887Z,26.51
2023-02-05T08:11:15.326Z,26.48
2023-02-05T08:13:44.574Z,26.52
2023-02-05T08:16:17.882Z,26.52
2023-02-05T08:18:50.276Z,26.44
2023-02-05T08:21:18.651Z,26.47
2023-02-05T08:23:46.646Z,26.56
2023-02-05T08:26:15.727Z,26.55
2023-02-05T08:28:43.682Z,26.56
2023-02-05T08:31:16.840Z,26.44
2023-02-05T08:33:45.961Z,26.41
2023-02-05T08:36:13.993Z,26.47
2023-02-05T08:38:42.121Z,26.51
2023-02-05T08:41:14.011Z,26.43
2023-02-05T08:43:46.561Z,26.43
2023-02-05T08:46:16.124Z,26.44
2023-02-05T08:48:44.228Z,26.47
2023-02-05T08:51:13.338Z,26.36
2023-02-05T08:53:41.675Z,26.44
2023-02-05T08:56:10.913Z,26.38
2023-02-05T08:58:39.806Z,26.47
2023-02-05T09:01:13.080Z,26.34
2023-02-05T09:03:41.049Z,26.38
2023-02-05T09:06:11.204Z,26.42
2023-02-05T09:08:39.154Z,26.42
2023-02-05T09:11:07.829Z,26.31
2023-02-05T09:13:37.040Z,26.37
2023-02-05T09:16:05.754Z,26.45
2023-02-05T09:18:33.881Z,26.46
2023-02-05T09:21:01.849Z,26.49
2023-02-05T09:23:30.022Z,26.42
2023-02-05T09:26:01.329Z,26.38
2023-02-05T09:28:29.590Z,26.32
2023-02-05T09:30:58.120Z,26.34
2023-02-05T09:33:26.424Z,26.33
2023-02-05T09:35:54.600Z,26.36
2023-02-05T09:38:23.359Z,26.39
2023-02-05T09:41:01.850Z,26.40
2023-02-05T09:43:52.139Z,26.39
2023-02-05T09:46:57.118Z,26.34
2023-02-05T09:49:57.290Z,26.37
2023-02-05T09:52:28.159Z,26.35
2023-02-05T09:55:01.282Z,26.38
2023-02-05T09:57:37.457Z,26.30
2023-02-05T10:00:27.630Z,26.30
2023-02-05T10:03:02.059Z,26.35
2023-02-05T10:05:33.161Z,26.22
2023-02-05T10:08:17.702Z,26.30
2023-02-05T10:10:48.792Z,26.33
2023-02-05T10:13:34.991Z,26.31
2023-02-05T10:16:25.074Z,26.37
2023-02-05T10:19:22.942Z,26.33
2023-02-05T10:22:02.878Z,26.37
2023-02-05T10:24:52.415Z,26.32
2023-02-05T10:27:24.941Z,26.35
2023-02-05T10:29:58.261Z,26.31
2023-02-05T10:32:57.679Z,26.31
2023-02-05T10:35:36.995Z,26.35
2023-02-05T10:38:06.170Z,26.49
2023-02-05T10:40:41.098Z,26.41
2023-02-05T10:43:29.787Z,26.33
2023-02-05T10:45:57.913Z,26.41
2023-02-05T10:48:33.967Z,26.46
2023-02-05T10:51:41.658Z,26.37
2023-02-05T10:54:20.828Z,26.35
2023-02-05T10:56:49.072Z,26.32
2023-02-05T10:59:33.864Z,26.31
2023-02-05T11:02:04.696Z,26.28
2023-02-05T11:04:41.405Z,26.35
2023-02-05T11:07:14.143Z,26.35
2023-02-05T11:09:42.102Z,26.36
2023-02-05T11:12:30.939Z,26.33
2023-02-05T11:15:03.352Z,26.26
2023-02-05T11:17:36.569Z,26.35
2023-02-05T11:20:07.278Z,26.31
2023-02-05T11:22:40.777Z,26.31
2023-02-05T11:25:17.968Z,26.35
2023-02-05T11:27:53.678Z,26.37
2023-02-05T11:30:56.029Z,26.34
2023-02-05T11:33:24.363Z,26.41
2023-02-05T11:35:56.410Z,26.39
2023-02-05T11:38:37.460Z,26.37
2023-02-05T11:41:07.453Z,26.42
2023-02-05T11:43:39.385Z,26.33
2023-02-05T11:46:08.775Z,26.32
2023-02-05T11:48:42.361Z,26.31
2023-02-05T11:51:16.403Z,26.35
2023-02-05T11:53:54.059Z,26.38
2023-02-05T11:56:25.406Z,26.40
2023-02-05T11:59:03.490Z,26.36
2023-02-05T12:01:36.097Z,26.36
2023-02-05T12:04:12.558Z,26.45
2023-02-05T12:07:00.310Z,26.46
2023-02-05T12:09:28.592Z,26.41
2023-02-05T12:12:08.625Z,26.44
2023-02-05T12:15:01.539Z,26.40
2023-02-05T12:17:49.566Z,26.49
2023-02-05T12:20:23.667Z,26.47
2023-02-05T12:23:34.048Z,26.48
2023-02-05T12:26:10.846Z,26.63
2023-02-05T12:29:12.765Z,26.54
2023-02-05T12:32:00.513Z,26.57
2023-02-05T12:34:48.229Z,26.67
2023-02-05T12:37:32.073Z,26.69
2023-02-05T12:40:15.328Z,26.57
2023-02-05T12:43:22.395Z,26.64
2023-02-05T12:45:56.739Z,26.59
2023-02-05T12:48:56.898Z,26.68
2023-02-05T12:51:38.538Z,26.60
2023-02-05T12:54:24.953Z,26.60
2023-02-05T12:57:06.235Z,26.64
2023-02-05T12:59:47.949Z,26.65
2023-02-05T13:02:20.450Z,26.63
2023-02-05T13:05:13.934Z,26.65
2023-02-05T13:07:47.532Z,26.66
2023-02-05T13:10:20.210Z,26.62
2023-02-05T13:12:58.491Z,26.67
2023-02-05T13:15:39.711Z,26.62
2023-02-05T13:18:20.739Z,26.65
2023-02-05T13:21:18.879Z,26.72
2023-02-05T13:24:06.182Z,26.74
2023-02-05T13:27:00.963Z,26.71
2023-02-05T13:29:31.198Z,26.75
2023-02-05T13:32:14.706Z,26.73
2023-02-05T13:34:43.620Z,26.65
2023-02-05T13:37:17.733Z,26.70
2023-02-05T13:39:58.339Z,26.72
2023-02-05T13:42:40.128Z,26.69
2023-02-05T13:46:01.555Z,26.66
2023-02-05T13:48:47.869Z,26.63
2023-02-05T13:51:46.017Z,26.68
2023-02-05T13:54:38.920Z,26.60
2023-02-05T13:57:20.017Z,26.64
2023-02-05T13:59:51.692Z,26.61
2023-02-05T14:02:34.900Z,26.64
2023-02-05T14:05:03.584Z,26.57
2023-02-05T14:07:43.943Z,26.62
2023-02-05T14:10:26.579Z,26.71
2023-02-05T14:13:08.772Z,26.72
2023-02-05T14:15:42.017Z,26.72
2023-02-05T14:18:11.883Z,26.66
2023-02-05T14:20:45.607Z,26.67
2023-02-05T14:23:49.393Z,26.73
2023-02-05T14:26:17.931Z,26.63
2023-02-05T14:28:50.764Z,26.67
2023-02-05T14:31:45.463Z,26.64
2023-02-05T14:34:28.007Z,26.71
2023-02-05T14:36:56.332Z,26.72
2023-02-05T14:39:34.544Z,26.73
2023-02-05T14:42:05.667Z,26.65
2023-02-05T14:44:35.456Z,26.66
2023-02-05T14:47:19.236Z,26.72
2023-02-05T14:49:48.017Z,26.52
2023-02-05T14:52:31.657Z,26.58
2023-02-05T14:55:15.304Z,26.67
2023-02-05T14:57:48.585Z,26.64
2023-02-05T15:00:36.078Z,26.76
2023-02-05T15:03:16.954Z,26.67
2023-02-05T15:05:59.080Z,26.72
2023-02-05T15:08:36.127Z,26.72
2023-02-05T15:11:08.441Z,26.64
2023-02-05T15:13:36.914Z,26.71
2023-02-05T15:16:11.385Z,26.73
2023-02-05T15:18:40.329Z,26.71
2023-02-05T15:21:19.969Z,26.66
2023-02-05T15:23:53.125Z,26.70
2023-02-05T15:26:24.954Z,26.66
2023-02-05T15:29:00.398Z,26.66
2023-02-05T15:31:41.726Z,26.64
2023-02-05T15:34:29.748Z,26.69
2023-02-05T15:37:15.066Z,26.70
2023-02-05T15:39:48.437Z,26.64
2023-02-05T15:42:18.587Z,26.75
2023-02-05T15:44:46.654Z,26.70
2023-02-05T15:47:22.016Z,26.69
2023-02-05T15:50:00.896Z,26.75
2023-02-05T15:52:30.530Z,26.68
2023-02-05T15:55:00.353Z,26.72
2023-02-05T15:57:29.752Z,26.69
2023-02-05T15:59:58.537Z,26.76
2023-02-05T16:02:28.738Z,26.73
2023-02-05T16:04:59.364Z,26.84
2023-02-05T16:07:35.337Z,26.80
2023-02-05T16:10:16.510Z,26.77
2023-02-05T16:13:17.373Z,26.66
2023-02-05T16:16:02.887Z,26.82
2023-02-05T16:18:41.550Z,26.82
2023-02-05T16:21:37.789Z,26.82
2023-02-05T16:24:08.625Z,26.82
2023-02-05T16:26:50.278Z,26.73
2023-02-05T16:29:36.068Z,26.73
2023-02-05T16:32:17.789Z,26.78
2023-02-05T16:34:45.844Z,26.83
2023-02-05T16:37:16.235Z,26.78
2023-02-05T16:39:55.111Z,26.78
2023-02-05T16:42:26.252Z,26.83
2023-02-05T16:45:13.476Z,26.76
2023-02-05T17:26:09.572Z,26.81
2023-02-05T17:28:43.804Z,26.19
2023-02-05T17:31:13.593Z,26.28
2023-02-05T17:33:45.043Z,26.44
2023-02-05T17:36:16.802Z,26.51
2023-02-05T17:38:45.349Z,26.50
2023-02-05T17:41:39.686Z,26.49
2023-02-05T17:44:13.191Z,26.56
2023-02-05T17:46:41.650Z,26.57
2023-02-05T17:49:09.656Z,26.64
2023-02-05T17:51:41.993Z,26.64
2023-02-05T17:54:19.329Z,26.61
2023-02-05T17:56:48.513Z,26.65
2023-02-05T17:59:21.289Z,26.77
2023-02-05T18:01:49.771Z,26.81
2023-02-05T18:04:19.140Z,26.76
2023-02-05T18:06:48.860Z,26.82
2023-02-05T18:09:18.778Z,26.89
2023-02-05T18:11:46.970Z,26.86
2023-02-05T18:14:16.339Z,26.90
2023-02-05T18:16:45.413Z,26.87
2023-02-05T18:19:14.225Z,26.91
2023-02-05T18:21:42.269Z,26.93
2023-02-05T18:24:10.469Z,27.05
2023-02-05T18:26:38.828Z,26.95
2023-02-05T18:29:07.083Z,26.99
2023-02-05T18:31:38.203Z,26.93
2023-02-05T18:34:06.867Z,26.92
2023-02-05T18:36:36.120Z,26.97
2023-02-05T18:39:04.406Z,27.00
2023-02-05T18:41:32.618Z,26.99
2023-02-05T18:44:00.572Z,27.02
2023-02-05T18:46:29.336Z,27.03
2023-02-05T18:48:57.469Z,27.11
2023-02-05T18:51:25.710Z,27.10
2023-02-05T18:53:54.067Z,27.11
2023-02-05T18:56:26.320Z,27.09
2023-02-05T18:58:59.357Z,27.09
2023-02-05T19:01:29.871Z,27.11
2023-02-05T19:04:08.589Z,27.14
2023-02-05T19:06:37.785Z,27.03
2023-02-05T19:09:07.186Z,27.04
2023-02-05T19:11:41.092Z,27.06
2023-02-05T19:14:11.289Z,27.06
2023-02-05T19:16:40.328Z,27.16
2023-02-05T19:19:08.786Z,27.06
2023-02-05T19:21:37.379Z,27.10
2023-02-05T19:24:07.489Z,27.16
2023-02-05T19:26:36.791Z,27.15
2023-02-05T19:29:07.934Z,27.16
2023-02-05T19:31:37.001Z,27.19
2023-02-05T19:34:05.820Z,27.16
2023-02-05T19:36:33.719Z,27.08
2023-02-05T19:39:03.601Z,27.22
2023-02-05T19:41:32.389Z,27.12
2023-02-05T19:44:02.440Z,27.11
2023-02-05T19:46:33.135Z,27.24
2023-02-05T19:49:03.117Z,27.19
2023-02-05T19:51:31.153Z,27.25
2023-02-05T19:54:00.329Z,27.21
2023-02-05T19:56:28.685Z,27.13
2023-02-05T19:58:56.883Z,27.26
2023-02-05T20:01:28.285Z,27.17
2023-02-05T20:04:22.423Z,27.20
2023-02-05T20:06:52.839Z,27.20
2023-02-05T20:09:21.768Z,27.22
2023-02-05T20:11:51.344Z,27.27
2023-02-05T20:14:21.204Z,27.25
2023-02-05T20:16:49.244Z,27.20
2023-02-05T20:19:17.827Z,27.26
2023-02-05T20:21:46.995Z,27.27
2023-02-05T20:24:16.807Z,27.28
2023-02-05T20:26:47.917Z,27.26
2023-02-05T20:29:36.295Z,27.21
2023-02-05T20:32:05.185Z,27.23
2023-02-05T20:34:37.149Z,27.30
2023-02-05T20:37:06.991Z,27.34
2023-02-05T20:39:40.076Z,27.31
2023-02-05T20:42:08.537Z,27.40
2023-02-05T20:44:36.903Z,27.42
2023-02-05T20:47:07.290Z,27.31
2023-02-05T20:49:43.294Z,27.30
2023-02-05T20:52:11.772Z,27.26
2023-02-05T20:54:40.286Z,27.39
2023-02-05T20:57:09.011Z,27.31
2023-02-05T20:59:37.216Z,27.36
2023-02-05T21:02:05.879Z,27.33
2023-02-05T21:04:36.940Z,27.35
2023-02-05T21:07:04.986Z,27.35
2023-02-05T21:09:33.009Z,27.26
2023-02-05T21:12:01.155Z,27.34
2023-02-05T21:14:30.703Z,27.26
2023-02-05T21:16:59.658Z,27.26
2023-02-05T21:19:28.447Z,27.23
2023-02-05T21:21:56.616Z,27.35
2023-02-05T21:24:24.548Z,27.39
2023-02-05T21:26:53.066Z,27.42
2023-02-05T21:29:21.456Z,27.39
2023-02-05T21:31:52.795Z,27.44
2023-02-05T21:34:25.791Z,27.45
2023-02-05T21:36:55.047Z,27.35
2023-02-05T21:39:23.195Z,27.38
2023-02-05T21:41:51.294Z,27.50
2023-02-05T21:44:19.366Z,27.40
2023-02-05T21:46:47.398Z,27.36
2023-02-05T21:49:15.438Z,27.43
2023-02-05T21:51:43.619Z,27.36
2023-02-05T21:54:11.739Z,27.51
2023-02-05T21:56:41.274Z,27.45
2023-02-05T21:59:12.813Z,27.36
2023-02-05T22:01:41.277Z,27.45
2023-02-05T22:04:11.939Z,27.44
2023-02-05T22:06:40.335Z,27.43
2023-02-05T22:09:11.918Z,27.51
2023-02-05T22:11:40.684Z,27.58
2023-02-05T22:14:08.844Z,27.53
2023-02-05T22:16:37.161Z,27.52
2023-02-05T22:19:06.843Z,27.47
2023-02-05T22:21:37.328Z,27.57
2023-02-05T22:24:05.703Z,27.60
2023-02-05T22:26:35.721Z,27.47
2023-02-05T22:29:05.330Z,27.64
2023-02-05T22:31:34.118Z,27.45
2023-02-05T22:34:02.376Z,27.52
2023-02-05T22:36:31.528Z,27.49
2023-02-05T22:38:59.444Z,27.60
2023-02-05T22:41:38.935Z,27.67
2023-02-05T22:44:07.723Z,27.60
2023-02-05T22:46:39.120Z,27.56
2023-02-05T22:49:07.286Z,27.62
2023-02-05T22:51:37.643Z,27.63
2023-02-05T22:54:06.050Z,27.62
2023-02-05T22:56:34.288Z,27.63
2023-02-05T22:59:03.540Z,27.61
2023-02-05T23:01:33.950Z,27.56
2023-02-05T23:04:02.696Z,27.69
2023-02-05T23:06:32.957Z,27.57
2023-02-05T23:09:05.482Z,27.63
2023-02-05T23:11:34.651Z,27.68
2023-02-05T23:14:03.271Z,27.70
2023-02-05T23:16:34.077Z,27.63
2023-02-05T23:19:07.211Z,27.68
2023-02-05T23:21:35.706Z,27.69
2023-02-05T23:24:04.002Z,27.65
2023-02-05T23:26:39.769Z,27.71
2023-02-05T23:29:08.397Z,27.66
2023-02-05T23:31:36.932Z,27.64
2023-02-05T23:34:05.505Z,27.62
2023-02-05T23:36:33.811Z,27.73
2023-02-05T23:39:01.863Z,27.69
2023-02-05T23:41:36.225Z,27.63
2023-02-05T23:44:09.784Z,27.65
2023-02-05T23:46:37.942Z,27.66
2023-02-05T23:49:06.438Z,27.63
2023-02-05T23:51:34.986Z,27.57
2023-02-05T23:54:03.579Z,27.70
2023-02-05T23:56:31.512Z,27.68
2023-02-05T23:58:59.467Z,27.70
